Terminal Aerodrome Forecast
Issued by NWS

Home | Current Version | Previous Version | Graphics & Text | Print | Product List | Glossary On
Versions: 1 2 3 4 5 6 7 8 9 10 11 12
000
FTUS45 KGGW 291700
TAFSDY
TAF
KSDY 291720Z 2918/3018 28014KT P6SM FEW090 FEW250
     FM300300 25007KT P6SM FEW140 SCT250
     FM300600 24008KT P6SM BKN120 BKN200
     FM301200 28011KT P6SM SCT250
      AMD LTD TO CLD VIS AND WIND=

USA.gov is the U.S. government's official web portal to all federal, state and local government web resources and services.